createdAt,value
2022-11-15T05:53:24.494Z,48.47
2022-11-15T05:59:05.145Z,42.00
2022-11-15T06:04:44.768Z,42.05
2022-11-15T06:10:24.354Z,41.80
2022-11-15T06:16:04.373Z,41.72
2022-11-15T06:21:43.811Z,52.83
2022-11-15T06:42:04.584Z,40.15
2022-11-15T06:47:48.127Z,39.42
2022-11-15T06:53:29.117Z,40.65
2022-11-15T06:59:09.161Z,40.05
2022-11-15T07:04:49.084Z,44.40
2022-11-15T07:10:29.163Z,36.10
2022-11-15T07:16:11.146Z,38.35
2022-11-15T07:27:30.190Z,31.40
2022-11-15T07:33:09.971Z,37.90
2022-11-15T07:38:49.568Z,38.05
2022-11-15T07:44:29.224Z,44.15
2022-11-15T07:50:09.080Z,41.65
2022-11-15T07:55:48.826Z,36.15
2022-11-15T08:01:29.009Z,31.88
2022-11-15T08:07:08.683Z,35.20
2022-11-15T08:12:48.555Z,32.10
2022-11-15T08:18:28.376Z,33.63
2022-11-15T08:24:11.627Z,32.33
2022-11-15T08:29:53.400Z,32.33
2022-11-15T08:35:36.478Z,35.78
2022-11-15T08:41:26.220Z,32.13
2022-11-15T08:47:05.894Z,36.47
2022-11-15T08:52:45.619Z,34.70
2022-11-15T08:58:25.452Z,30.70
2022-11-15T09:04:05.429Z,33.53
2022-11-15T09:09:45.265Z,31.90
2022-11-15T09:15:25.015Z,31.65
2022-11-15T09:21:05.417Z,32.97
2022-11-15T09:26:45.493Z,34.40
2022-11-15T09:32:25.024Z,32.78
2022-11-15T09:38:05.168Z,31.33
2022-11-15T09:43:57.496Z,37.45
2022-11-15T09:49:36.984Z,44.08
2022-11-15T09:55:12.502Z,33.88
2022-11-15T10:00:47.079Z,31.25
2022-11-15T10:06:15.528Z,29.55
2022-11-15T10:11:39.457Z,30.73
2022-11-15T10:17:10.763Z,31.15
2022-11-15T10:22:48.181Z,28.20
2022-11-15T10:28:22.332Z,32.20
2022-11-15T10:33:43.233Z,30.65
2022-11-15T10:44:30.480Z,31.70
2022-11-15T10:49:56.700Z,31.92
2022-11-15T10:55:17.630Z,30.77
2022-11-15T11:00:42.821Z,35.55
2022-11-15T11:06:13.072Z,32.67
2022-11-15T11:11:51.499Z,32.55
2022-11-15T11:17:43.490Z,31.58
2022-11-15T11:23:55.686Z,31.13
2022-11-15T11:29:23.197Z,30.97
2022-11-15T11:35:04.213Z,31.15
2022-11-15T11:40:39.951Z,32.47
2022-11-15T11:46:10.082Z,32.22
2022-11-15T11:51:51.260Z,31.95
2022-11-15T11:57:37.180Z,33.20
2022-11-15T12:03:17.443Z,32.55
2022-11-15T12:08:44.448Z,30.30
2022-11-15T12:14:14.813Z,29.52
2022-11-15T12:19:36.364Z,32.13
2022-11-15T12:25:02.915Z,33.83
2022-11-15T12:30:26.559Z,29.70
2022-11-15T12:36:01.551Z,29.83
2022-11-15T12:41:30.266Z,33.35
2022-11-15T12:46:50.715Z,32.38
2022-11-15T12:52:11.571Z,33.40
2022-11-15T12:57:40.274Z,33.63
2022-11-15T13:03:25.449Z,32.85
2022-11-15T13:08:48.674Z,38.15
2022-11-15T13:14:37.545Z,37.10
2022-11-15T13:20:07.685Z,42.28
2022-11-15T13:25:37.987Z,41.88
2022-11-15T13:31:14.892Z,43.93
2022-11-15T13:36:36.265Z,46.33
2022-11-15T13:47:20.964Z,49.78
2022-11-15T13:52:46.559Z,53.63
2022-11-15T13:58:10.204Z,53.60
2022-11-15T14:03:42.247Z,56.03
2022-11-15T14:09:12.673Z,56.25
2022-11-15T14:14:33.806Z,57.13
2022-11-15T14:19:55.022Z,57.20
2022-11-15T14:25:19.788Z,64.97
2022-11-15T14:30:41.557Z,59.90
2022-11-15T14:36:16.080Z,66.10
2022-11-15T14:41:40.632Z,63.08
2022-11-15T14:47:01.772Z,63.00
2022-11-15T14:52:33.059Z,68.90
2022-11-15T14:57:54.129Z,70.00
2022-11-15T15:08:36.057Z,79.18
2022-11-15T15:13:59.164Z,76.20
2022-11-15T15:19:19.854Z,74.18
2022-11-15T15:24:40.655Z,77.70
2022-11-15T15:35:23.009Z,66.43
2022-11-15T15:40:43.810Z,87.05
2022-11-15T15:46:04.618Z,78.45
2022-11-15T15:51:25.327Z,80.03
2022-11-15T15:56:46.238Z,75.20
2022-11-15T16:02:07.211Z,75.25
2022-11-15T16:07:30.373Z,75.07
2022-11-15T16:12:52.074Z,81.50
2022-11-15T16:18:17.631Z,74.32
2022-11-15T16:23:38.597Z,84.95
2022-11-15T16:28:59.376Z,73.75
2022-11-15T16:34:20.240Z,76.70
2022-11-15T16:39:41.129Z,75.50
2022-11-15T16:45:02.002Z,70.95
2022-11-15T16:50:28.080Z,74.97
2022-11-15T16:55:49.054Z,61.03
2022-11-15T17:01:18.026Z,58.97
2022-11-15T17:06:40.881Z,56.20
2022-11-15T17:12:02.141Z,58.22
2022-11-15T17:17:23.552Z,53.22
2022-11-15T17:28:06.103Z,47.00
2022-11-15T17:33:27.706Z,60.28
2022-11-15T17:38:58.019Z,52.38
2022-11-15T17:44:20.387Z,54.95
2022-11-15T17:49:41.270Z,49.22
2022-11-15T17:55:02.191Z,46.95
2022-11-15T18:00:23.080Z,58.08
2022-11-15T18:11:12.315Z,71.95
2022-11-15T18:16:35.948Z,57.17
2022-11-15T18:21:57.032Z,73.03
2022-11-15T18:27:17.805Z,71.72
2022-11-15T18:32:38.526Z,60.85
2022-11-15T18:37:59.348Z,66.55
2022-11-15T18:43:20.136Z,51.00
2022-11-15T18:48:43.023Z,77.18
2022-11-15T18:54:04.096Z,60.70
2022-11-15T18:59:24.899Z,54.25
2022-11-15T19:04:45.846Z,70.05
2022-11-15T19:10:07.254Z,67.65
2022-11-15T19:15:28.171Z,65.82
2022-11-15T19:20:49.933Z,48.92
2022-11-15T19:26:13.640Z,52.35
2022-11-15T19:31:35.027Z,49.83
2022-11-15T19:36:56.103Z,59.00
2022-11-15T19:47:37.932Z,76.40
2022-11-15T19:58:19.936Z,51.85
2022-11-15T20:09:01.559Z,63.33
2022-11-15T20:14:23.912Z,58.05
2022-11-15T20:19:44.885Z,61.00
2022-11-15T20:25:06.230Z,56.22
2022-11-15T20:35:48.757Z,59.22
2022-11-15T20:41:09.785Z,62.20
2022-11-15T20:46:30.675Z,65.60
2022-11-15T20:51:51.980Z,68.75
2022-11-15T20:57:13.316Z,74.82
2022-11-15T21:02:34.177Z,70.90
2022-11-15T21:07:54.924Z,68.45
2022-11-15T21:13:15.896Z,65.70
2022-11-15T21:18:36.935Z,59.35
2022-11-15T21:23:57.675Z,55.90
2022-11-15T21:29:22.608Z,56.90
2022-11-15T21:34:43.367Z,56.08
2022-11-15T21:45:25.131Z,54.15
2022-11-15T21:50:55.344Z,54.92
2022-11-15T21:56:16.276Z,52.67
2022-11-15T22:07:16.950Z,68.72
2022-11-15T22:12:38.165Z,60.85
2022-11-15T22:23:19.987Z,68.95
2022-11-15T22:34:02.119Z,57.03
2022-11-15T22:39:22.864Z,62.35
